Aviation Digital Data Service (ADDS)

Output produced by METARs form (1637 UTC 03 December 2021)
found at http://www.aviationweather.gov/metar/data/
 
METAR text: OPKC 031630Z 05004KT 5000 HZ NSC 22/03 Q1017 NOSIG
Conditions at: OPKC (KARACHI INTL ARP, PK) observed 1630 UTC 03 December 2021
Temperature: 22.0°C (72°F)
Dewpoint: 3.0°C (37°F) [RH = 29%]
Pressure (altimeter): 30.03 inches Hg (1017.0 mb)
Winds: from the NE (50 degrees) at 5 MPH (4 knots; 2.1 m/s)
Visibility: 3 miles ( 5 km)
Ceiling: at least 12,000 feet AGL
Clouds: sky clear below 12,000 feet AGL
Weather: HZ  (haze)

METAR text: OPKC 031600Z 06005KT 5000 HZ NSC 22/03 Q1017 NOSIG
Conditions at: OPKC (KARACHI INTL ARP, PK) observed 1600 UTC 03 December 2021
Temperature: 22.0°C (72°F)
Dewpoint: 3.0°C (37°F) [RH = 29%]
Pressure (altimeter): 30.03 inches Hg (1017.0 mb)
Winds: from the ENE (60 degrees) at 6 MPH (5 knots; 2.6 m/s)
Visibility: 3 miles ( 5 km)
Ceiling: at least 12,000 feet AGL
Clouds: sky clear below 12,000 feet AGL
Weather: HZ  (haze)

METAR text: OPKC 031530Z 03003KT 4000 HZ NSC 22/04 Q1017 NOSIG
Conditions at: OPKC (KARACHI INTL ARP, PK) observed 1530 UTC 03 December 2021
Temperature: 22.0°C (72°F)
Dewpoint: 4.0°C (39°F) [RH = 31%]
Pressure (altimeter): 30.03 inches Hg (1017.0 mb)
Winds: from the NNE (30 degrees) at 3 MPH (3 knots; 1.5 m/s)
Visibility: 2.49 miles (4.01 km)
Ceiling: at least 12,000 feet AGL
Clouds: sky clear below 12,000 feet AGL
Weather: HZ  (haze)

METAR text: OPKC 031500Z 00000KT 4000 HZ NSC 22/09 Q1017 NOSIG
Conditions at: OPKC (KARACHI INTL ARP, PK) observed 1500 UTC 03 December 2021
Temperature: 22.0°C (72°F)
Dewpoint: 9.0°C (48°F) [RH = 43%]
Pressure (altimeter): 30.03 inches Hg (1017.0 mb)
Winds: calm
Visibility: 2.49 miles (4.01 km)
Ceiling: at least 12,000 feet AGL
Clouds: sky clear below 12,000 feet AGL
Weather: HZ  (haze)

METAR text: OPKC 031430Z 00000KT 4000 HZ NSC 23/09 Q1017 NOSIG
Conditions at: OPKC (KARACHI INTL ARP, PK) observed 1430 UTC 03 December 2021
Temperature: 23.0°C (73°F)
Dewpoint: 9.0°C (48°F) [RH = 41%]
Pressure (altimeter): 30.03 inches Hg (1017.0 mb)
Winds: calm
Visibility: 2.49 miles (4.01 km)
Ceiling: at least 12,000 feet AGL
Clouds: sky clear below 12,000 feet AGL
Weather: HZ  (haze)

METAR text: OPKC 031400Z 00000KT 4000 HZ NSC 23/08 Q1016 NOSIG
Conditions at: OPKC (KARACHI INTL ARP, PK) observed 1400 UTC 03 December 2021
Temperature: 23.0°C (73°F)
Dewpoint: 8.0°C (46°F) [RH = 38%]
Pressure (altimeter): 30.00 inches Hg (1016.0 mb)
Winds: calm
Visibility: 2.49 miles (4.01 km)
Ceiling: at least 12,000 feet AGL
Clouds: sky clear below 12,000 feet AGL
Weather: HZ  (haze)

METAR text: OPKC 031330Z 00000KT 4000 HZ NSC 25/10 Q1016 NOSIG
Conditions at: OPKC (KARACHI INTL ARP, PK) observed 1330 UTC 03 December 2021
Temperature: 25.0°C (77°F)
Dewpoint: 10.0°C (50°F) [RH = 39%]
Pressure (altimeter): 30.00 inches Hg (1016.0 mb)
Winds: calm
Visibility: 2.49 miles (4.01 km)
Ceiling: at least 12,000 feet AGL
Clouds: sky clear below 12,000 feet AGL
Weather: HZ  (haze)

METAR text: OPKC 031300Z 25004KT 4000 HZ NSC 25/10 Q1016 NOSIG
Conditions at: OPKC (KARACHI INTL ARP, PK) observed 1300 UTC 03 December 2021
Temperature: 25.0°C (77°F)
Dewpoint: 10.0°C (50°F) [RH = 39%]
Pressure (altimeter): 30.00 inches Hg (1016.0 mb)
Winds: from the WSW (250 degrees) at 5 MPH (4 knots; 2.1 m/s)
Visibility: 2.49 miles (4.01 km)
Ceiling: at least 12,000 feet AGL
Clouds: sky clear below 12,000 feet AGL
Weather: HZ  (haze)

METAR text: OPKC 031230Z 09003KT 5000 HZ NSC 27/01 Q1015 NOSIG
Conditions at: OPKC (KARACHI INTL ARP, PK) observed 1230 UTC 03 December 2021
Temperature: 27.0°C (81°F)
Dewpoint: 1.0°C (34°F) [RH = 18%]
Pressure (altimeter): 29.97 inches Hg (1015.0 mb)
Winds: from the E (90 degrees) at 3 MPH (3 knots; 1.5 m/s)
Visibility: 3 miles ( 5 km)
Ceiling: at least 12,000 feet AGL
Clouds: sky clear below 12,000 feet AGL
Weather: HZ  (haze)

METAR text: OPKC 031200Z 09004KT 6000 NSC 28/M01 Q1015 NOSIG
Conditions at: OPKC (KARACHI INTL ARP, PK) observed 1200 UTC 03 December 2021
Temperature: 28.0°C (82°F)
Dewpoint: -1.0°C (30°F) [RH = 15%]
Pressure (altimeter): 29.97 inches Hg (1015.0 mb)
Winds: from the E (90 degrees) at 5 MPH (4 knots; 2.1 m/s)
Visibility: 4 miles ( 6 km)
Ceiling: at least 12,000 feet AGL
Clouds: sky clear below 12,000 feet AGL
Weather: no significant weather observed at this time

METAR text: OPKC 031130Z 07005KT 6000 NSC 29/M01 Q1015 NOSIG
Conditions at: OPKC (KARACHI INTL ARP, PK) observed 1130 UTC 03 December 2021
Temperature: 29.0°C (84°F)
Dewpoint: -1.0°C (30°F) [RH = 14%]
Pressure (altimeter): 29.97 inches Hg (1015.0 mb)
Winds: from the ENE (70 degrees) at 6 MPH (5 knots; 2.6 m/s)
Visibility: 4 miles ( 6 km)
Ceiling: at least 12,000 feet AGL
Clouds: sky clear below 12,000 feet AGL
Weather: no significant weather observed at this time

METAR text: OPKC 031100Z 05003KT 6000 NSC 29/M02 Q1015 NOSIG
Conditions at: OPKC (KARACHI INTL ARP, PK) observed 1100 UTC 03 December 2021
Temperature: 29.0°C (84°F)
Dewpoint: -2.0°C (28°F) [RH = 13%]
Pressure (altimeter): 29.97 inches Hg (1015.0 mb)
Winds: from the NE (50 degrees) at 3 MPH (3 knots; 1.5 m/s)
Visibility: 4 miles ( 6 km)
Ceiling: at least 12,000 feet AGL
Clouds: sky clear below 12,000 feet AGL
Weather: no significant weather observed at this time

METAR text: OPKC 031030Z 03004KT 6000 NSC 29/M09 Q1015 NOSIG
Conditions at: OPKC (KARACHI INTL ARP, PK) observed 1030 UTC 03 December 2021
Temperature: 29.0°C (84°F)
Dewpoint: -9.0°C (16°F) [RH =  8%]
Pressure (altimeter): 29.97 inches Hg (1015.0 mb)
Winds: from the NNE (30 degrees) at 5 MPH (4 knots; 2.1 m/s)
Visibility: 4 miles ( 6 km)
Ceiling: at least 12,000 feet AGL
Clouds: sky clear below 12,000 feet AGL
Weather: no significant weather observed at this time

METAR text: OPKC 031000Z 06003KT 6000 NSC 29/M01 Q1015 NOSIG
Conditions at: OPKC (KARACHI INTL ARP, PK) observed 1000 UTC 03 December 2021
Temperature: 29.0°C (84°F)
Dewpoint: -1.0°C (30°F) [RH = 14%]
Pressure (altimeter): 29.97 inches Hg (1015.0 mb)
Winds: from the ENE (60 degrees) at 3 MPH (3 knots; 1.5 m/s)
Visibility: 4 miles ( 6 km)
Ceiling: at least 12,000 feet AGL
Clouds: sky clear below 12,000 feet AGL
Weather: no significant weather observed at this time

METAR text: OPKC 030930Z 07004KT 6000 NSC 29/00 Q1015 NOSIG
Conditions at: OPKC (KARACHI INTL ARP, PK) observed 0930 UTC 03 December 2021
Temperature: 29.0°C (84°F)
Dewpoint: 0.0°C (32°F) [RH = 15%]
Pressure (altimeter): 29.97 inches Hg (1015.0 mb)
Winds: from the ENE (70 degrees) at 5 MPH (4 knots; 2.1 m/s)
Visibility: 4 miles ( 6 km)
Ceiling: at least 12,000 feet AGL
Clouds: sky clear below 12,000 feet AGL
Weather: no significant weather observed at this time

METAR text: OPKC 030900Z 08010KT 6000 NSC 29/M01 Q1015 NOSIG
Conditions at: OPKC (KARACHI INTL ARP, PK) observed 0900 UTC 03 December 2021
Temperature: 29.0°C (84°F)
Dewpoint: -1.0°C (30°F) [RH = 14%]
Pressure (altimeter): 29.97 inches Hg (1015.0 mb)
Winds: from the E (80 degrees) at 12 MPH (10 knots; 5.1 m/s)
Visibility: 4 miles ( 6 km)
Ceiling: at least 12,000 feet AGL
Clouds: sky clear below 12,000 feet AGL
Weather: no significant weather observed at this time

METAR text: OPKC 030830Z 07009KT 6000 NSC 29/M01 Q1016 NOSIG
Conditions at: OPKC (KARACHI INTL ARP, PK) observed 0830 UTC 03 December 2021
Temperature: 29.0°C (84°F)
Dewpoint: -1.0°C (30°F) [RH = 14%]
Pressure (altimeter): 30.00 inches Hg (1016.0 mb)
Winds: from the ENE (70 degrees) at 10 MPH (9 knots; 4.6 m/s)
Visibility: 4 miles ( 6 km)
Ceiling: at least 12,000 feet AGL
Clouds: sky clear below 12,000 feet AGL
Weather: no significant weather observed at this time

METAR text: OPKC 030800Z 05008KT 5000 HZ NSC 29/01 Q1016 NOSIG
Conditions at: OPKC (KARACHI INTL ARP, PK) observed 0800 UTC 03 December 2021
Temperature: 29.0°C (84°F)
Dewpoint: 1.0°C (34°F) [RH = 16%]
Pressure (altimeter): 30.00 inches Hg (1016.0 mb)
Winds: from the NE (50 degrees) at 9 MPH (8 knots; 4.1 m/s)
Visibility: 3 miles ( 5 km)
Ceiling: at least 12,000 feet AGL
Clouds: sky clear below 12,000 feet AGL
Weather: HZ  (haze)

METAR text: OPKC 030730Z 06010KT 5000 HZ NSC 28/01 Q1017 NOSIG
Conditions at: OPKC (KARACHI INTL ARP, PK) observed 0730 UTC 03 December 2021
Temperature: 28.0°C (82°F)
Dewpoint: 1.0°C (34°F) [RH = 17%]
Pressure (altimeter): 30.03 inches Hg (1017.0 mb)
Winds: from the ENE (60 degrees) at 12 MPH (10 knots; 5.1 m/s)
Visibility: 3 miles ( 5 km)
Ceiling: at least 12,000 feet AGL
Clouds: sky clear below 12,000 feet AGL
Weather: HZ  (haze)

METAR text: OPKC 030700Z 05007KT 5000 HZ NSC 28/03 Q1018 NOSIG
Conditions at: OPKC (KARACHI INTL ARP, PK) observed 0700 UTC 03 December 2021
Temperature: 28.0°C (82°F)
Dewpoint: 3.0°C (37°F) [RH = 20%]
Pressure (altimeter): 30.06 inches Hg (1018.0 mb)
Winds: from the NE (50 degrees) at 8 MPH (7 knots; 3.6 m/s)
Visibility: 3 miles ( 5 km)
Ceiling: at least 12,000 feet AGL
Clouds: sky clear below 12,000 feet AGL
Weather: HZ  (haze)

METAR text: OPKC 030630Z 07009KT 4000 HZ NSC 27/03 Q1018 NOSIG
Conditions at: OPKC (KARACHI INTL ARP, PK) observed 0630 UTC 03 December 2021
Temperature: 27.0°C (81°F)
Dewpoint: 3.0°C (37°F) [RH = 21%]
Pressure (altimeter): 30.06 inches Hg (1018.0 mb)
Winds: from the ENE (70 degrees) at 10 MPH (9 knots; 4.6 m/s)
Visibility: 2.49 miles (4.01 km)
Ceiling: at least 12,000 feet AGL
Clouds: sky clear below 12,000 feet AGL
Weather: HZ  (haze)

METAR text: OPKC 030625Z 07009KT 4000 HZ NSC 27/03 Q1018 NOSIG
Conditions at: OPKC (KARACHI INTL ARP, PK) observed 0625 UTC 03 December 2021
Temperature: 27.0°C (81°F)
Dewpoint: 3.0°C (37°F) [RH = 21%]
Pressure (altimeter): 30.06 inches Hg (1018.0 mb)
Winds: from the ENE (70 degrees) at 10 MPH (9 knots; 4.6 m/s)
Visibility: 2.49 miles (4.01 km)
Ceiling: at least 12,000 feet AGL
Clouds: sky clear below 12,000 feet AGL
Weather: HZ  (haze)

METAR text: OPKC 030555Z 04009KT 3000 HZ NSC 26/04 Q1018 NOSIG
Conditions at: OPKC (KARACHI INTL ARP, PK) observed 0555 UTC 03 December 2021
Temperature: 26.0°C (79°F)
Dewpoint: 4.0°C (39°F) [RH = 24%]
Pressure (altimeter): 30.06 inches Hg (1018.0 mb)
Winds: from the NE (40 degrees) at 10 MPH (9 knots; 4.6 m/s)
Visibility: 1.86 miles (2.99 km)
Ceiling: at least 12,000 feet AGL
Clouds: sky clear below 12,000 feet AGL
Weather: HZ  (haze)

METAR text: OPKC 030525Z 04008KT 3000 HZ NSC 25/04 Q1019 NOSIG
Conditions at: OPKC (KARACHI INTL ARP, PK) observed 0525 UTC 03 December 2021
Temperature: 25.0°C (77°F)
Dewpoint: 4.0°C (39°F) [RH = 26%]
Pressure (altimeter): 30.09 inches Hg (1019.0 mb)
Winds: from the NE (40 degrees) at 9 MPH (8 knots; 4.1 m/s)
Visibility: 1.86 miles (2.99 km)
Ceiling: at least 12,000 feet AGL
Clouds: sky clear below 12,000 feet AGL
Weather: HZ  (haze)

METAR text: OPKC 030500Z 05004KT 3000 HZ NSC 23/04 Q1019 NOSIG
Conditions at: OPKC (KARACHI INTL ARP, PK) observed 0500 UTC 03 December 2021
Temperature: 23.0°C (73°F)
Dewpoint: 4.0°C (39°F) [RH = 29%]
Pressure (altimeter): 30.09 inches Hg (1019.0 mb)
Winds: from the NE (50 degrees) at 5 MPH (4 knots; 2.1 m/s)
Visibility: 1.86 miles (2.99 km)
Ceiling: at least 12,000 feet AGL
Clouds: sky clear below 12,000 feet AGL
Weather: HZ  (haze)

METAR text: OPKC 030430Z 03004KT 3000 HZ NSC 22/03 Q1019 NOSIG
Conditions at: OPKC (KARACHI INTL ARP, PK) observed 0430 UTC 03 December 2021
Temperature: 22.0°C (72°F)
Dewpoint: 3.0°C (37°F) [RH = 29%]
Pressure (altimeter): 30.09 inches Hg (1019.0 mb)
Winds: from the NNE (30 degrees) at 5 MPH (4 knots; 2.1 m/s)
Visibility: 1.86 miles (2.99 km)
Ceiling: at least 12,000 feet AGL
Clouds: sky clear below 12,000 feet AGL
Weather: HZ  (haze)

METAR text: OPKC 030400Z 03004KT 3000 HZ NSC 21/03 Q1018 NOSIG
Conditions at: OPKC (KARACHI INTL ARP, PK) observed 0400 UTC 03 December 2021
Temperature: 21.0°C (70°F)
Dewpoint: 3.0°C (37°F) [RH = 30%]
Pressure (altimeter): 30.06 inches Hg (1018.0 mb)
Winds: from the NNE (30 degrees) at 5 MPH (4 knots; 2.1 m/s)
Visibility: 1.86 miles (2.99 km)
Ceiling: at least 12,000 feet AGL
Clouds: sky clear below 12,000 feet AGL
Weather: HZ  (haze)

METAR text: OPKC 030330Z 02007KT 3000 HZ NSC 20/02 Q1018 NOSIG
Conditions at: OPKC (KARACHI INTL ARP, PK) observed 0330 UTC 03 December 2021
Temperature: 20.0°C (68°F)
Dewpoint: 2.0°C (36°F) [RH = 30%]
Pressure (altimeter): 30.06 inches Hg (1018.0 mb)
Winds: from the NNE (20 degrees) at 8 MPH (7 knots; 3.6 m/s)
Visibility: 1.86 miles (2.99 km)
Ceiling: at least 12,000 feet AGL
Clouds: sky clear below 12,000 feet AGL
Weather: HZ  (haze)

METAR text: OPKC 030300Z 35005KT 3000 HZ NSC 20/02 Q1017 NOSIG
Conditions at: OPKC (KARACHI INTL ARP, PK) observed 0300 UTC 03 December 2021
Temperature: 20.0°C (68°F)
Dewpoint: 2.0°C (36°F) [RH = 30%]
Pressure (altimeter): 30.03 inches Hg (1017.0 mb)
Winds: from the N (350 degrees) at 6 MPH (5 knots; 2.6 m/s)
Visibility: 1.86 miles (2.99 km)
Ceiling: at least 12,000 feet AGL
Clouds: sky clear below 12,000 feet AGL
Weather: HZ  (haze)

METAR text: OPKC 030230Z 35005KT 3000 HZ NSC 19/02 Q1017 NOSIG
Conditions at: OPKC (KARACHI INTL ARP, PK) observed 0230 UTC 03 December 2021
Temperature: 19.0°C (66°F)
Dewpoint: 2.0°C (36°F) [RH = 32%]
Pressure (altimeter): 30.03 inches Hg (1017.0 mb)
Winds: from the N (350 degrees) at 6 MPH (5 knots; 2.6 m/s)
Visibility: 1.86 miles (2.99 km)
Ceiling: at least 12,000 feet AGL
Clouds: sky clear below 12,000 feet AGL
Weather: HZ  (haze)

METAR text: OPKC 030200Z 35006KT 4000 HZ NSC 19/01 Q1016 NOSIG
Conditions at: OPKC (KARACHI INTL ARP, PK) observed 0200 UTC 03 December 2021
Temperature: 19.0°C (66°F)
Dewpoint: 1.0°C (34°F) [RH = 30%]
Pressure (altimeter): 30.00 inches Hg (1016.0 mb)
Winds: from the N (350 degrees) at 7 MPH (6 knots; 3.1 m/s)
Visibility: 2.49 miles (4.01 km)
Ceiling: at least 12,000 feet AGL
Clouds: sky clear below 12,000 feet AGL
Weather: HZ  (haze)

METAR text: OPKC 030130Z 36007KT 4000 HZ NSC 19/01 Q1016 NOSIG
Conditions at: OPKC (KARACHI INTL ARP, PK) observed 0130 UTC 03 December 2021
Temperature: 19.0°C (66°F)
Dewpoint: 1.0°C (34°F) [RH = 30%]
Pressure (altimeter): 30.00 inches Hg (1016.0 mb)
Winds: from the N (360 degrees) at 8 MPH (7 knots; 3.6 m/s)
Visibility: 2.49 miles (4.01 km)
Ceiling: at least 12,000 feet AGL
Clouds: sky clear below 12,000 feet AGL
Weather: HZ  (haze)

METAR text: OPKC 030100Z 36004KT 5000 HZ NSC 19/01 Q1016 NOSIG
Conditions at: OPKC (KARACHI INTL ARP, PK) observed 0100 UTC 03 December 2021
Temperature: 19.0°C (66°F)
Dewpoint: 1.0°C (34°F) [RH = 30%]
Pressure (altimeter): 30.00 inches Hg (1016.0 mb)
Winds: from the N (360 degrees) at 5 MPH (4 knots; 2.1 m/s)
Visibility: 3 miles ( 5 km)
Ceiling: at least 12,000 feet AGL
Clouds: sky clear below 12,000 feet AGL
Weather: HZ  (haze)

METAR text: OPKC 030030Z 34007KT 5000 HZ NSC 19/01 Q1016 NOSIG
Conditions at: OPKC (KARACHI INTL ARP, PK) observed 0030 UTC 03 December 2021
Temperature: 19.0°C (66°F)
Dewpoint: 1.0°C (34°F) [RH = 30%]
Pressure (altimeter): 30.00 inches Hg (1016.0 mb)
Winds: from the NNW (340 degrees) at 8 MPH (7 knots; 3.6 m/s)
Visibility: 3 miles ( 5 km)
Ceiling: at least 12,000 feet AGL
Clouds: sky clear below 12,000 feet AGL
Weather: HZ  (haze)

METAR text: OPKC 022359Z 36005KT 5000 HZ NSC 19/00 Q1015 NOSIG
Conditions at: OPKC (KARACHI INTL ARP, PK) observed 2359 UTC 02 December 2021
Temperature: 19.0°C (66°F)
Dewpoint: 0.0°C (32°F) [RH = 28%]
Pressure (altimeter): 29.97 inches Hg (1015.0 mb)
Winds: from the N (360 degrees) at 6 MPH (5 knots; 2.6 m/s)
Visibility: 3 miles ( 5 km)
Ceiling: at least 12,000 feet AGL
Clouds: sky clear below 12,000 feet AGL
Weather: HZ  (haze)

METAR text: OPKC 022330Z 36004KT 5000 HZ NSC 19/00 Q1015 NOSIG
Conditions at: OPKC (KARACHI INTL ARP, PK) observed 2330 UTC 02 December 2021
Temperature: 19.0°C (66°F)
Dewpoint: 0.0°C (32°F) [RH = 28%]
Pressure (altimeter): 29.97 inches Hg (1015.0 mb)
Winds: from the N (360 degrees) at 5 MPH (4 knots; 2.1 m/s)
Visibility: 3 miles ( 5 km)
Ceiling: at least 12,000 feet AGL
Clouds: sky clear below 12,000 feet AGL
Weather: HZ  (haze)

METAR text: OPKC 022300Z 34005KT 5000 HZ NSC 19/M01 Q1015 NOSIG
Conditions at: OPKC (KARACHI INTL ARP, PK) observed 2300 UTC 02 December 2021
Temperature: 19.0°C (66°F)
Dewpoint: -1.0°C (30°F) [RH = 26%]
Pressure (altimeter): 29.97 inches Hg (1015.0 mb)
Winds: from the NNW (340 degrees) at 6 MPH (5 knots; 2.6 m/s)
Visibility: 3 miles ( 5 km)
Ceiling: at least 12,000 feet AGL
Clouds: sky clear below 12,000 feet AGL
Weather: HZ  (haze)

METAR text: OPKC 022230Z 03006KT 5000 HZ NSC 19/M01 Q1015 NOSIG
Conditions at: OPKC (KARACHI INTL ARP, PK) observed 2230 UTC 02 December 2021
Temperature: 19.0°C (66°F)
Dewpoint: -1.0°C (30°F) [RH = 26%]
Pressure (altimeter): 29.97 inches Hg (1015.0 mb)
Winds: from the NNE (30 degrees) at 7 MPH (6 knots; 3.1 m/s)
Visibility: 3 miles ( 5 km)
Ceiling: at least 12,000 feet AGL
Clouds: sky clear below 12,000 feet AGL
Weather: HZ  (haze)

METAR text: OPKC 022200Z 02005KT 5000 HZ NSC 20/M01 Q1015 NOSIG
Conditions at: OPKC (KARACHI INTL ARP, PK) observed 2200 UTC 02 December 2021
Temperature: 20.0°C (68°F)
Dewpoint: -1.0°C (30°F) [RH = 24%]
Pressure (altimeter): 29.97 inches Hg (1015.0 mb)
Winds: from the NNE (20 degrees) at 6 MPH (5 knots; 2.6 m/s)
Visibility: 3 miles ( 5 km)
Ceiling: at least 12,000 feet AGL
Clouds: sky clear below 12,000 feet AGL
Weather: HZ  (haze)

METAR text: OPKC 022130Z 02005KT 5000 HZ NSC 21/M01 Q1015 NOSIG
Conditions at: OPKC (KARACHI INTL ARP, PK) observed 2130 UTC 02 December 2021
Temperature: 21.0°C (70°F)
Dewpoint: -1.0°C (30°F) [RH = 23%]
Pressure (altimeter): 29.97 inches Hg (1015.0 mb)
Winds: from the NNE (20 degrees) at 6 MPH (5 knots; 2.6 m/s)
Visibility: 3 miles ( 5 km)
Ceiling: at least 12,000 feet AGL
Clouds: sky clear below 12,000 feet AGL
Weather: HZ  (haze)

METAR text: OPKC 022100Z 02007KT 5000 HZ NSC 21/M01 Q1015 NOSIG
Conditions at: OPKC (KARACHI INTL ARP, PK) observed 2100 UTC 02 December 2021
Temperature: 21.0°C (70°F)
Dewpoint: -1.0°C (30°F) [RH = 23%]
Pressure (altimeter): 29.97 inches Hg (1015.0 mb)
Winds: from the NNE (20 degrees) at 8 MPH (7 knots; 3.6 m/s)
Visibility: 3 miles ( 5 km)
Ceiling: at least 12,000 feet AGL
Clouds: sky clear below 12,000 feet AGL
Weather: HZ  (haze)

METAR text: OPKC 022030Z 03007KT 6000 NSC 20/00 Q1016 NOSIG
Conditions at: OPKC (KARACHI INTL ARP, PK) observed 2030 UTC 02 December 2021
Temperature: 20.0°C (68°F)
Dewpoint: 0.0°C (32°F) [RH = 26%]
Pressure (altimeter): 30.00 inches Hg (1016.0 mb)
Winds: from the NNE (30 degrees) at 8 MPH (7 knots; 3.6 m/s)
Visibility: 4 miles ( 6 km)
Ceiling: at least 12,000 feet AGL
Clouds: sky clear below 12,000 feet AGL
Weather: no significant weather observed at this time

METAR text: OPKC 022000Z 03005KT 6000 NSC 18/01 Q1016 NOSIG
Conditions at: OPKC (KARACHI INTL ARP, PK) observed 2000 UTC 02 December 2021
Temperature: 18.0°C (64°F)
Dewpoint: 1.0°C (34°F) [RH = 32%]
Pressure (altimeter): 30.00 inches Hg (1016.0 mb)
Winds: from the NNE (30 degrees) at 6 MPH (5 knots; 2.6 m/s)
Visibility: 4 miles ( 6 km)
Ceiling: at least 12,000 feet AGL
Clouds: sky clear below 12,000 feet AGL
Weather: no significant weather observed at this time

METAR text: OPKC 021930Z 03005KT 6000 NSC 16/01 Q1016 NOSIG
Conditions at: OPKC (KARACHI INTL ARP, PK) observed 1930 UTC 02 December 2021
Temperature: 16.0°C (61°F)
Dewpoint: 1.0°C (34°F) [RH = 36%]
Pressure (altimeter): 30.00 inches Hg (1016.0 mb)
Winds: from the NNE (30 degrees) at 6 MPH (5 knots; 2.6 m/s)
Visibility: 4 miles ( 6 km)
Ceiling: at least 12,000 feet AGL
Clouds: sky clear below 12,000 feet AGL
Weather: no significant weather observed at this time

METAR text: OPKC 021900Z 04006KT 6000 NSC 16/00 Q1016 NOSIG
Conditions at: OPKC (KARACHI INTL ARP, PK) observed 1900 UTC 02 December 2021
Temperature: 16.0°C (61°F)
Dewpoint: 0.0°C (32°F) [RH = 34%]
Pressure (altimeter): 30.00 inches Hg (1016.0 mb)
Winds: from the NE (40 degrees) at 7 MPH (6 knots; 3.1 m/s)
Visibility: 4 miles ( 6 km)
Ceiling: at least 12,000 feet AGL
Clouds: sky clear below 12,000 feet AGL
Weather: no significant weather observed at this time

METAR text: OPKC 021830Z 06004KT 6000 NSC 16/00 Q1016 NOSIG
Conditions at: OPKC (KARACHI INTL ARP, PK) observed 1830 UTC 02 December 2021
Temperature: 16.0°C (61°F)
Dewpoint: 0.0°C (32°F) [RH = 34%]
Pressure (altimeter): 30.00 inches Hg (1016.0 mb)
Winds: from the ENE (60 degrees) at 5 MPH (4 knots; 2.1 m/s)
Visibility: 4 miles ( 6 km)
Ceiling: at least 12,000 feet AGL
Clouds: sky clear below 12,000 feet AGL
Weather: no significant weather observed at this time

METAR text: OPKC 021800Z 04005KT 6000 NSC 18/00 Q1016 NOSIG
Conditions at: OPKC (KARACHI INTL ARP, PK) observed 1800 UTC 02 December 2021
Temperature: 18.0°C (64°F)
Dewpoint: 0.0°C (32°F) [RH = 30%]
Pressure (altimeter): 30.00 inches Hg (1016.0 mb)
Winds: from the NE (40 degrees) at 6 MPH (5 knots; 2.6 m/s)
Visibility: 4 miles ( 6 km)
Ceiling: at least 12,000 feet AGL
Clouds: sky clear below 12,000 feet AGL
Weather: no significant weather observed at this time

METAR text: OPKC 021730Z 04005KT 6000 NSC 18/M00 Q1017 NOSIG
Conditions at: OPKC (KARACHI INTL ARP, PK) observed 1730 UTC 02 December 2021
Temperature: 18.0°C (64°F)
Dewpoint: 0.0°C (32°F) [RH = 30%]
Pressure (altimeter): 30.03 inches Hg (1017.0 mb)
Winds: from the NE (40 degrees) at 6 MPH (5 knots; 2.6 m/s)
Visibility: 4 miles ( 6 km)
Ceiling: at least 12,000 feet AGL
Clouds: sky clear below 12,000 feet AGL
Weather: no significant weather observed at this time

METAR text: OPKC 021700Z 03004KT 6000 NSC 20/M00 Q1017 NOSIG
Conditions at: OPKC (KARACHI INTL ARP, PK) observed 1700 UTC 02 December 2021
Temperature: 20.0°C (68°F)
Dewpoint: 0.0°C (32°F) [RH = 26%]
Pressure (altimeter): 30.03 inches Hg (1017.0 mb)
Winds: from the NNE (30 degrees) at 5 MPH (4 knots; 2.1 m/s)
Visibility: 4 miles ( 6 km)
Ceiling: at least 12,000 feet AGL
Clouds: sky clear below 12,000 feet AGL
Weather: no significant weather observed at this time

METAR text: OPKC 021630Z 02005KT 6000 NSC 23/M01 Q1017 NOSIG
Conditions at: OPKC (KARACHI INTL ARP, PK) observed 1630 UTC 02 December 2021
Temperature: 23.0°C (73°F)
Dewpoint: -1.0°C (30°F) [RH = 20%]
Pressure (altimeter): 30.03 inches Hg (1017.0 mb)
Winds: from the NNE (20 degrees) at 6 MPH (5 knots; 2.6 m/s)
Visibility: 4 miles ( 6 km)
Ceiling: at least 12,000 feet AGL
Clouds: sky clear below 12,000 feet AGL
Weather: no significant weather observed at this time

METAR text: OPKC 021600Z 03005KT 6000 NSC 23/M01 Q1017 NOSIG
Conditions at: OPKC (KARACHI INTL ARP, PK) observed 1600 UTC 02 December 2021
Temperature: 23.0°C (73°F)
Dewpoint: -1.0°C (30°F) [RH = 20%]
Pressure (altimeter): 30.03 inches Hg (1017.0 mb)
Winds: from the NNE (30 degrees) at 6 MPH (5 knots; 2.6 m/s)
Visibility: 4 miles ( 6 km)
Ceiling: at least 12,000 feet AGL
Clouds: sky clear below 12,000 feet AGL
Weather: no significant weather observed at this time

METAR text: OPKC 021530Z 36003KT 6000 NSC 23/M01 Q1016 NOSIG
Conditions at: OPKC (KARACHI INTL ARP, PK) observed 1530 UTC 02 December 2021
Temperature: 23.0°C (73°F)
Dewpoint: -1.0°C (30°F) [RH = 20%]
Pressure (altimeter): 30.00 inches Hg (1016.0 mb)
Winds: from the N (360 degrees) at 3 MPH (3 knots; 1.5 m/s)
Visibility: 4 miles ( 6 km)
Ceiling: at least 12,000 feet AGL
Clouds: sky clear below 12,000 feet AGL
Weather: no significant weather observed at this time

METAR text: OPKC 021500Z 04005KT 6000 NSC 22/00 Q1016 NOSIG
Conditions at: OPKC (KARACHI INTL ARP, PK) observed 1500 UTC 02 December 2021
Temperature: 22.0°C (72°F)
Dewpoint: 0.0°C (32°F) [RH = 23%]
Pressure (altimeter): 30.00 inches Hg (1016.0 mb)
Winds: from the NE (40 degrees) at 6 MPH (5 knots; 2.6 m/s)
Visibility: 4 miles ( 6 km)
Ceiling: at least 12,000 feet AGL
Clouds: sky clear below 12,000 feet AGL
Weather: no significant weather observed at this time

METAR text: OPKC 021430Z 04006KT 6000 NSC 22/00 Q1016 NOSIG
Conditions at: OPKC (KARACHI INTL ARP, PK) observed 1430 UTC 02 December 2021
Temperature: 22.0°C (72°F)
Dewpoint: 0.0°C (32°F) [RH = 23%]
Pressure (altimeter): 30.00 inches Hg (1016.0 mb)
Winds: from the NE (40 degrees) at 7 MPH (6 knots; 3.1 m/s)
Visibility: 4 miles ( 6 km)
Ceiling: at least 12,000 feet AGL
Clouds: sky clear below 12,000 feet AGL
Weather: no significant weather observed at this time

METAR text: OPKC 021400Z 04005KT 5000 HZ NSC 23/00 Q1015 NOSIG
Conditions at: OPKC (KARACHI INTL ARP, PK) observed 1400 UTC 02 December 2021
Temperature: 23.0°C (73°F)
Dewpoint: 0.0°C (32°F) [RH = 22%]
Pressure (altimeter): 29.97 inches Hg (1015.0 mb)
Winds: from the NE (40 degrees) at 6 MPH (5 knots; 2.6 m/s)
Visibility: 3 miles ( 5 km)
Ceiling: at least 12,000 feet AGL
Clouds: sky clear below 12,000 feet AGL
Weather: HZ  (haze)

METAR text: OPKC 021330Z 05008KT 5000 HZ NSC 24/M01 Q1015 NOSIG
Conditions at: OPKC (KARACHI INTL ARP, PK) observed 1330 UTC 02 December 2021
Temperature: 24.0°C (75°F)
Dewpoint: -1.0°C (30°F) [RH = 19%]
Pressure (altimeter): 29.97 inches Hg (1015.0 mb)
Winds: from the NE (50 degrees) at 9 MPH (8 knots; 4.1 m/s)
Visibility: 3 miles ( 5 km)
Ceiling: at least 12,000 feet AGL
Clouds: sky clear below 12,000 feet AGL
Weather: HZ  (haze)

METAR text: OPKC 021300Z 06010KT 5000 HZ NSC 26/M03 Q1015 NOSIG
Conditions at: OPKC (KARACHI INTL ARP, PK) observed 1300 UTC 02 December 2021
Temperature: 26.0°C (79°F)
Dewpoint: -3.0°C (27°F) [RH = 15%]
Pressure (altimeter): 29.97 inches Hg (1015.0 mb)
Winds: from the ENE (60 degrees) at 12 MPH (10 knots; 5.1 m/s)
Visibility: 3 miles ( 5 km)
Ceiling: at least 12,000 feet AGL
Clouds: sky clear below 12,000 feet AGL
Weather: HZ  (haze)

METAR text: OPKC 021230Z 07012KT 5000 HZ NSC 27/M03 Q1014 NOSIG
Conditions at: OPKC (KARACHI INTL ARP, PK) observed 1230 UTC 02 December 2021
Temperature: 27.0°C (81°F)
Dewpoint: -3.0°C (27°F) [RH = 14%]
Pressure (altimeter): 29.94 inches Hg (1014.0 mb)
Winds: from the ENE (70 degrees) at 14 MPH (12 knots; 6.2 m/s)
Visibility: 3 miles ( 5 km)
Ceiling: at least 12,000 feet AGL
Clouds: sky clear below 12,000 feet AGL
Weather: HZ  (haze)

METAR text: OPKC 021200Z 05010KT 6000 NSC 28/M03 Q1014 NOSIG
Conditions at: OPKC (KARACHI INTL ARP, PK) observed 1200 UTC 02 December 2021
Temperature: 28.0°C (82°F)
Dewpoint: -3.0°C (27°F) [RH = 13%]
Pressure (altimeter): 29.94 inches Hg (1014.0 mb)
Winds: from the NE (50 degrees) at 12 MPH (10 knots; 5.1 m/s)
Visibility: 4 miles ( 6 km)
Ceiling: at least 12,000 feet AGL
Clouds: sky clear below 12,000 feet AGL
Weather: no significant weather observed at this time

METAR text: OPKC 021130Z 06012KT 6000 NSC 28/M04 Q1014 NOSIG
Conditions at: OPKC (KARACHI INTL ARP, PK) observed 1130 UTC 02 December 2021
Temperature: 28.0°C (82°F)
Dewpoint: -4.0°C (25°F) [RH = 12%]
Pressure (altimeter): 29.94 inches Hg (1014.0 mb)
Winds: from the ENE (60 degrees) at 14 MPH (12 knots; 6.2 m/s)
Visibility: 4 miles ( 6 km)
Ceiling: at least 12,000 feet AGL
Clouds: sky clear below 12,000 feet AGL
Weather: no significant weather observed at this time

METAR text: OPKC 021100Z 06010KT 6000 NSC 29/M03 Q1014 NOSIG
Conditions at: OPKC (KARACHI INTL ARP, PK) observed 1100 UTC 02 December 2021
Temperature: 29.0°C (84°F)
Dewpoint: -3.0°C (27°F) [RH = 12%]
Pressure (altimeter): 29.94 inches Hg (1014.0 mb)
Winds: from the ENE (60 degrees) at 12 MPH (10 knots; 5.1 m/s)
Visibility: 4 miles ( 6 km)
Ceiling: at least 12,000 feet AGL
Clouds: sky clear below 12,000 feet AGL
Weather: no significant weather observed at this time

METAR text: OPKC 021030Z 04014KT 6000 NSC 29/M03 Q1014 NOSIG
Conditions at: OPKC (KARACHI INTL ARP, PK) observed 1030 UTC 02 December 2021
Temperature: 29.0°C (84°F)
Dewpoint: -3.0°C (27°F) [RH = 12%]
Pressure (altimeter): 29.94 inches Hg (1014.0 mb)
Winds: from the NE (40 degrees) at 16 MPH (14 knots; 7.2 m/s)
Visibility: 4 miles ( 6 km)
Ceiling: at least 12,000 feet AGL
Clouds: sky clear below 12,000 feet AGL
Weather: no significant weather observed at this time

METAR text: OPKC 021000Z 07009KT 6000 NSC 29/M03 Q1014 NOSIG
Conditions at: OPKC (KARACHI INTL ARP, PK) observed 1000 UTC 02 December 2021
Temperature: 29.0°C (84°F)
Dewpoint: -3.0°C (27°F) [RH = 12%]
Pressure (altimeter): 29.94 inches Hg (1014.0 mb)
Winds: from the ENE (70 degrees) at 10 MPH (9 knots; 4.6 m/s)
Visibility: 4 miles ( 6 km)
Ceiling: at least 12,000 feet AGL
Clouds: sky clear below 12,000 feet AGL
Weather: no significant weather observed at this time

METAR text: OPKC 020930Z 08015KT 6000 NSC 29/M03 Q1014 NOSIG
Conditions at: OPKC (KARACHI INTL ARP, PK) observed 0930 UTC 02 December 2021
Temperature: 29.0°C (84°F)
Dewpoint: -3.0°C (27°F) [RH = 12%]
Pressure (altimeter): 29.94 inches Hg (1014.0 mb)
Winds: from the E (80 degrees) at 17 MPH (15 knots; 7.7 m/s)
Visibility: 4 miles ( 6 km)
Ceiling: at least 12,000 feet AGL
Clouds: sky clear below 12,000 feet AGL
Weather: no significant weather observed at this time

METAR text: OPKC 020900Z 07016KT 6000 NSC 29/M03 Q1015 NOSIG
Conditions at: OPKC (KARACHI INTL ARP, PK) observed 0900 UTC 02 December 2021
Temperature: 29.0°C (84°F)
Dewpoint: -3.0°C (27°F) [RH = 12%]
Pressure (altimeter): 29.97 inches Hg (1015.0 mb)
Winds: from the ENE (70 degrees) at 18 MPH (16 knots; 8.2 m/s)
Visibility: 4 miles ( 6 km)
Ceiling: at least 12,000 feet AGL
Clouds: sky clear below 12,000 feet AGL
Weather: no significant weather observed at this time

METAR text: OPKC 020830Z 08016KT 6000 NSC 29/M02 Q1015 NOSIG
Conditions at: OPKC (KARACHI INTL ARP, PK) observed 0830 UTC 02 December 2021
Temperature: 29.0°C (84°F)
Dewpoint: -2.0°C (28°F) [RH = 13%]
Pressure (altimeter): 29.97 inches Hg (1015.0 mb)
Winds: from the E (80 degrees) at 18 MPH (16 knots; 8.2 m/s)
Visibility: 4 miles ( 6 km)
Ceiling: at least 12,000 feet AGL
Clouds: sky clear below 12,000 feet AGL
Weather: no significant weather observed at this time

METAR text: OPKC 020800Z 07015KT 6000 NSC 29/M01 Q1016 NOSIG
Conditions at: OPKC (KARACHI INTL ARP, PK) observed 0800 UTC 02 December 2021
Temperature: 29.0°C (84°F)
Dewpoint: -1.0°C (30°F) [RH = 14%]
Pressure (altimeter): 30.00 inches Hg (1016.0 mb)
Winds: from the ENE (70 degrees) at 17 MPH (15 knots; 7.7 m/s)
Visibility: 4 miles ( 6 km)
Ceiling: at least 12,000 feet AGL
Clouds: sky clear below 12,000 feet AGL
Weather: no significant weather observed at this time

METAR text: OPKC 020730Z 06012KT 5000 HZ NSC 28/00 Q1016 NOSIG
Conditions at: OPKC (KARACHI INTL ARP, PK) observed 0730 UTC 02 December 2021
Temperature: 28.0°C (82°F)
Dewpoint: 0.0°C (32°F) [RH = 16%]
Pressure (altimeter): 30.00 inches Hg (1016.0 mb)
Winds: from the ENE (60 degrees) at 14 MPH (12 knots; 6.2 m/s)
Visibility: 3 miles ( 5 km)
Ceiling: at least 12,000 feet AGL
Clouds: sky clear below 12,000 feet AGL
Weather: HZ  (haze)

METAR text: OPKC 020700Z 05010KT 5000 HZ NSC 28/M01 Q1017 NOSIG
Conditions at: OPKC (KARACHI INTL ARP, PK) observed 0700 UTC 02 December 2021
Temperature: 28.0°C (82°F)
Dewpoint: -1.0°C (30°F) [RH = 15%]
Pressure (altimeter): 30.03 inches Hg (1017.0 mb)
Winds: from the NE (50 degrees) at 12 MPH (10 knots; 5.1 m/s)
Visibility: 3 miles ( 5 km)
Ceiling: at least 12,000 feet AGL
Clouds: sky clear below 12,000 feet AGL
Weather: HZ  (haze)

METAR text: OPKC 020630Z 03014KT 4000 HZ NSC 27/02 Q1018 NOSIG
Conditions at: OPKC (KARACHI INTL ARP, PK) observed 0630 UTC 02 December 2021
Temperature: 27.0°C (81°F)
Dewpoint: 2.0°C (36°F) [RH = 20%]
Pressure (altimeter): 30.06 inches Hg (1018.0 mb)
Winds: from the NNE (30 degrees) at 16 MPH (14 knots; 7.2 m/s)
Visibility: 2.49 miles (4.01 km)
Ceiling: at least 12,000 feet AGL
Clouds: sky clear below 12,000 feet AGL
Weather: HZ  (haze)

METAR text: OPKC 020600Z 04009KT 4000 HZ NSC 27/02 Q1018 NOSIG
Conditions at: OPKC (KARACHI INTL ARP, PK) observed 0600 UTC 02 December 2021
Temperature: 27.0°C (81°F)
Dewpoint: 2.0°C (36°F) [RH = 20%]
Pressure (altimeter): 30.06 inches Hg (1018.0 mb)
Winds: from the NE (40 degrees) at 10 MPH (9 knots; 4.6 m/s)
Visibility: 2.49 miles (4.01 km)
Ceiling: at least 12,000 feet AGL
Clouds: sky clear below 12,000 feet AGL
Weather: HZ  (haze)

METAR text: OPKC 020530Z 05006KT 3000 HZ NSC 25/04 Q1018 NOSIG
Conditions at: OPKC (KARACHI INTL ARP, PK) observed 0530 UTC 02 December 2021
Temperature: 25.0°C (77°F)
Dewpoint: 4.0°C (39°F) [RH = 26%]
Pressure (altimeter): 30.06 inches Hg (1018.0 mb)
Winds: from the NE (50 degrees) at 7 MPH (6 knots; 3.1 m/s)
Visibility: 1.86 miles (2.99 km)
Ceiling: at least 12,000 feet AGL
Clouds: sky clear below 12,000 feet AGL
Weather: HZ  (haze)

METAR text: OPKC 020500Z 03008KT 3000 HZ NSC 24/05 Q1018 NOSIG
Conditions at: OPKC (KARACHI INTL ARP, PK) observed 0500 UTC 02 December 2021
Temperature: 24.0°C (75°F)
Dewpoint: 5.0°C (41°F) [RH = 29%]
Pressure (altimeter): 30.06 inches Hg (1018.0 mb)
Winds: from the NNE (30 degrees) at 9 MPH (8 knots; 4.1 m/s)
Visibility: 1.86 miles (2.99 km)
Ceiling: at least 12,000 feet AGL
Clouds: sky clear below 12,000 feet AGL
Weather: HZ  (haze)

Forecast for: OPKC (KARACHI INTL ARP, PK)
Text: TAF OPKC 031530Z 0318/0403 05007KT 5000 HZ NSC
Forecast period: 1800 UTC 03 December 2021 to 0300 UTC 04 December 2021
Forecast type: FROM: standard forecast or significant change
Winds: from the NE (50 degrees) at 8 MPH (7 knots; 3.6 m/s)
Visibility: 3 miles (5 km)
Ceiling: unknown
Clouds: missing
Weather: HZ  (haze)
Text: TEMPO 0400/0403 02004KT 3000 HZ NSC
Forecast period: 0000 to 0300 UTC 04 December 2021
Forecast type: TEMPORARY: The following changes expected for less than half the time period
Winds: from the NNE (20 degrees) at 5 MPH (4 knots; 2.1 m/s)
Visibility: 1.86 miles (2.99 km)
Ceiling: unknown
Clouds: missing
Weather: HZ  (haze)